Ely, NV

3:59 AM PDT on October 01, 2016 (GMT -0700)
| | Change Station
Active Advisory: Wind Advisory

Elev -9999 ft 0.00 °N, 0.00 °E | Updated

Clear
Clear
46 °F
Feels Like 41 °F
N
12
Wind Variable Wind from South
Gusts 18 mph

Today
High -- | Low -- °F
--% Chance of Precip.
Yesterday
High -- | Low -- °F
Precip. -- in
Pressure 29.90 in
Visibility 10.0 miles
Clouds Mostly Cloudy 6500 ft
Mostly Cloudy 8000 ft
Windchill 41 °F
Dew Point 38 °F
Humidity 71%
Rainfall --
Snow Depth Not available.
6:35 AM 6:20 PM
New Moon, 0% visible
METAR KELY 011053Z AUTO 20008KT 10SM BKN065 BKN080 12/04 A3016 RMK AO2 SLP123 T01220044
Pressure 29.90 in
Visibility 10.0 miles
Clouds Mostly Cloudy 6500 ft
Mostly Cloudy 8000 ft
Windchill 41 °F
Dew Point 38 °F
Humidity 71%
Rainfall --
Snow Depth Not available.
6:35 AM 6:20 PM
New Moon, 0% visible
METAR KELY 011053Z AUTO 20008KT 10SM BKN065 BKN080 12/04 A3016 RMK AO2 SLP123 T01220044

10-Day Weather Forecast

Almanac

Astronomy

Oct. 01, 2016 Rise Set
Actual Time
Civil Twilight
Nautical Twilight
Astronomical Twilight
Moon
Length of Visible Light
Length of Day
Tomorrow will be .
, % of the Moon is Illuminated

Today's Extremes

State Highs State Lows

Community

WunderPhotos

Upload Photos

1,942,908 photos uploaded!

WunderBlog® & News

Nearby

Air Quality

  Air Quality AQ Index Pollutant
Not available.

Snow Depth

Station Depth Elevation

Earthquake Activity

City Distance Mag. Time & Date
Minimum magnitude displayed is 2.5.

Coastal Water Temperatures

Place Temperature

Stations

Nearby Weather Stations

Station Location Temp. Windchill Dew Point Humidity Wind Precip. Elev Updated Type
                   

Watches & Warnings

Wind Advisory
Issued: 2:37 AM PDT Oct. 1, 2016 – National Weather Service

... Wind Advisory in effect from 11 am to 11 PM PDT Sunday...

The National Weather Service in Elko has issued a Wind Advisory...
which is in effect from 11 am to 11 PM PDT Sunday.

* Winds... south 25 to 35 mph gusting to around 55 mph.

* Timing... late Sunday morning through Sunday evening.

* Impacts... motorists should exercise caution while driving in the
Wind Advisory area. Be alert to sudden gusts of wind which may
cause you to lose control of your vehicle. Highway 50 will be
especially prone to cross winds on Sunday.

Precautionary/preparedness actions...

A Wind Advisory means that sustained winds of 30 mph with gusts
in excess of 45 mph are expected. Winds this strong can make
driving difficult, especially for high profile vehicles. Use
extra caution.



Lw